TimeCDT,TemperatureF,Dew PointF,Humidity,Sea Level PressureIn,VisibilityMPH,Wind Direction,Wind SpeedMPH,Gust SpeedMPH,PrecipitationIn,Events,Conditions,WindDirDegrees,DateUTC
12:55 AM,48.0,-9999,N/A,29.78,6.0,NNE,13.8,-,N/A,,Haze,30,2013-03-16 05:55:00
1:55 AM,46.9,-9999,N/A,29.83,5.0,East,4.6,-,N/A,,Haze,100,2013-03-16 06:55:00
2:55 AM,46.0,-9999,N/A,29.87,5.0,NNW,8.1,-,N/A,,Haze,340,2013-03-16 07:55:00
3:55 AM,44.1,-9999,N/A,29.88,5.0,North,17.3,28.8,N/A,,Haze,10,2013-03-16 08:55:00
4:55 AM,41.0,-9999,N/A,29.90,5.0,NNE,21.9,31.1,N/A,,Haze,20,2013-03-16 09:55:00
5:55 AM,37.9,-9999,N/A,29.94,7.0,NNE,20.7,26.5,N/A,,Mostly Cloudy,20,2013-03-16 10:55:00
6:55 AM,36.0,-9999,N/A,29.93,6.0,NNE,25.3,33.4,N/A,,Haze,20,2013-03-16 11:55:00
7:55 AM,34.0,-9999,N/A,29.98,9.0,NNE,23.0,33.4,N/A,,Scattered Clouds,20,2013-03-16 12:55:00
8:52 AM,33.8,26.6,75,30.05,9.0,NNE,16.1,21.9,0.00,,Overcast,20,2013-03-16 13:52:00
8:55 AM,33.1,27.0,78,30.06,9.0,NNE,15.0,-,0.00,,Overcast,20,2013-03-16 13:55:00
9:34 AM,33.8,26.6,75,30.00,8.0,NNE,26.5,32.2,N/A,,Scattered Clouds,20,2013-03-16 14:34:00
9:55 AM,34.0,27.0,75,30.03,9.0,NNE,21.9,31.1,N/A,,Scattered Clouds,30,2013-03-16 14:55:00
10:55 AM,36.0,27.0,70,30.06,10.0,NNE,16.1,-,N/A,,Scattered Clouds,20,2013-03-16 15:55:00
11:32 AM,35.6,26.6,70,30.07,10.0,North,15.0,-,N/A,,Mostly Cloudy,10,2013-03-16 16:32:00
11:55 AM,37.0,27.0,67,30.08,10.0,NNE,15.0,-,N/A,,Overcast,30,2013-03-16 16:55:00
12:36 PM,37.4,24.8,60,30.07,10.0,NE,16.1,-,N/A,,Mostly Cloudy,50,2013-03-16 17:36:00
12:55 PM,37.9,25.0,60,30.09,10.0,NE,15.0,-,N/A,,Partly Cloudy,50,2013-03-16 17:55:00
1:55 PM,39.0,25.0,57,30.08,10.0,NNE,16.1,-,N/A,,Clear,20,2013-03-16 18:55:00
2:55 PM,37.9,24.1,57,30.06,10.0,NE,16.1,-,N/A,,Partly Cloudy,40,2013-03-16 19:55:00
3:55 PM,37.9,24.1,57,30.05,10.0,NE,16.1,-,N/A,,Partly Cloudy,40,2013-03-16 20:55:00
4:55 PM,37.0,24.1,59,30.05,10.0,NE,12.7,-,N/A,,Scattered Clouds,50,2013-03-16 21:55:00
5:55 PM,36.0,24.1,62,30.07,9.0,NE,15.0,-,N/A,,Mostly Cloudy,50,2013-03-16 22:55:00
6:55 PM,34.0,23.0,64,30.09,7.0,NNE,13.8,-,N/A,,Overcast,20,2013-03-16 23:55:00
7:55 PM,33.1,23.0,66,30.10,8.0,NE,13.8,-,N/A,,Overcast,40,2013-03-17 00:55:00
8:55 PM,33.1,24.1,70,30.12,7.0,NNE,15.0,-,N/A,,Overcast,30,2013-03-17 01:55:00
9:55 PM,33.1,24.1,70,30.14,7.0,NNE,15.0,-,N/A,,Overcast,20,2013-03-17 02:55:00
10:55 PM,32.0,24.1,73,30.12,8.0,NE,15.0,-,0.00,,Overcast,40,2013-03-17 03:55:00
11:06 PM,32.0,24.8,75,30.08,1.8,NE,13.8,-,0.00,Snow,Light Snow,40,2013-03-17 04:06:00
11:23 PM,30.2,26.6,86,30.07,3.0,NE,11.5,-,0.02,,Overcast,40,2013-03-17 04:23:00
11:48 PM,30.2,26.6,86,30.05,4.0,ENE,15.0,-,0.05,Rain,Light Freezing Rain,60,2013-03-17 04:48:00
11:55 PM,30.9,27.0,85,30.08,3.0,ENE,16.1,-,0.05,Rain,Light Freezing Rain,60,2013-03-17 04:55:00